Time;durP1;ratioP1;P1;durP2;ratioP2;P2;SDS_P1;SDS_P2;PMS_P1;PMS_P2;Temp;Humidity;BMP_temperature;BMP_pressure;BME280_temperature;BME280_humidity;BME280_pressure;Samples;Min_cycle;Max_cycle;Signal;HPM_P1;HPM_P2
2022/03/21 00:02:28;;;;;;;1.90;1.70;;;16.90;53.90;;;;;;5214088;28;20190;-62
2022/03/21 00:05:20;;;;;;;2.53;2.03;;;16.90;54.00;;;;;;5204376;28;20532;-62
2022/03/21 00:08:12;;;;;;;3.33;2.13;;;16.90;54.10;;;;;;5222407;28;20211;-62
2022/03/21 00:11:05;;;;;;;2.30;2.10;;;16.90;54.10;;;;;;5224815;28;20192;-62
2022/03/21 00:13:58;;;;;;;2.13;1.77;;;16.90;54.20;;;;;;5222293;28;20224;-62
2022/03/21 00:16:51;;;;;;;2.73;2.23;;;16.90;54.10;;;;;;5223148;28;20238;-62
2022/03/21 00:19:43;;;;;;;2.30;1.90;;;16.90;54.10;;;;;;5225466;28;20213;-63
2022/03/21 00:22:35;;;;;;;2.40;2.20;;;16.90;54.10;;;;;;5224793;28;20303;-62
2022/03/21 00:25:27;;;;;;;2.80;2.30;;;16.90;54.10;;;;;;5225140;28;20201;-62
2022/03/21 00:28:20;;;;;;;2.30;2.00;;;16.90;54.00;;;;;;5224984;28;20197;-62
2022/03/21 00:31:13;;;;;;;1.87;1.70;;;16.90;54.10;;;;;;5223296;28;20200;-61
2022/03/21 00:34:05;;;;;;;1.97;1.77;;;16.90;54.10;;;;;;5223867;28;20201;-60
2022/03/21 00:36:58;;;;;;;2.10;1.90;;;16.90;54.10;;;;;;5224871;28;20660;-62
2022/03/21 00:39:50;;;;;;;2.70;2.10;;;16.90;54.10;;;;;;5224220;28;20221;-62
2022/03/21 00:42:44;;;;;;;2.40;2.20;;;16.90;54.10;;;;;;5224504;28;20200;-61
2022/03/21 00:45:36;;;;;;;2.27;2.07;;;16.90;54.00;;;;;;5205259;28;20208;-62
2022/03/21 00:48:32;;;;;;;2.43;1.93;;;16.90;54.10;;;;;;5220898;28;20216;-62
2022/03/21 00:51:24;;;;;;;2.57;1.90;;;16.90;54.10;;;;;;5206869;28;20242;-62
2022/03/21 00:54:16;;;;;;;1.67;1.57;;;16.90;54.00;;;;;;5204850;28;20198;-61
2022/03/21 00:57:08;;;;;;;1.90;1.70;;;16.90;54.00;;;;;;5204805;28;20201;-61
2022/03/21 01:00:00;;;;;;;2.43;1.93;;;16.90;54.10;;;;;;5209917;28;20213;-61
2022/03/21 01:02:53;;;;;;;2.37;2.10;;;16.90;54.00;;;;;;5224612;28;20193;-62
2022/03/21 01:05:46;;;;;;;2.27;1.77;;;16.90;54.10;;;;;;5224683;28;20193;-62
2022/03/21 01:08:39;;;;;;;2.50;2.00;;;16.90;54.10;;;;;;5224550;28;20223;-62
2022/03/21 01:11:31;;;;;;;2.20;2.00;;;16.90;54.10;;;;;;5223658;28;20213;-62
2022/03/21 01:14:23;;;;;;;2.90;2.30;;;16.90;54.10;;;;;;5224750;28;20668;-62
2022/03/21 01:17:15;;;;;;;2.10;1.80;;;16.90;54.10;;;;;;5223048;28;20209;-62
2022/03/21 01:20:08;;;;;;;1.83;1.60;;;16.90;54.10;;;;;;5205800;28;20247;-62
2022/03/21 01:23:01;;;;;;;2.00;1.80;;;16.90;54.10;;;;;;5214927;28;20190;-62
2022/03/21 01:25:53;;;;;;;2.90;1.90;;;16.90;54.00;;;;;;5212770;28;20246;-62
2022/03/21 01:28:45;;;;;;;2.90;2.10;;;16.90;54.00;;;;;;5203814;28;20255;-63
2022/03/21 01:31:38;;;;;;;2.80;2.20;;;16.90;54.10;;;;;;5204153;28;20209;-62
2022/03/21 01:34:30;;;;;;;2.33;2.07;;;16.90;54.00;;;;;;5204174;28;20665;-62
2022/03/21 01:37:22;;;;;;;3.27;2.10;;;16.90;54.10;;;;;;5205370;28;20202;-61
2022/03/21 01:40:17;;;;;;;2.57;2.00;;;16.90;54.10;;;;;;5205325;28;20348;-62
2022/03/21 01:43:11;;;;;;;1.93;1.73;;;16.90;54.10;;;;;;5205323;28;20198;-62
2022/03/21 01:46:04;;;;;;;3.17;2.17;;;16.90;54.20;;;;;;5206543;28;20289;-62
2022/03/21 01:48:56;;;;;;;2.33;2.03;;;16.90;54.20;;;;;;5221826;28;20229;-63
2022/03/21 01:51:48;;;;;;;2.57;2.20;;;16.90;54.20;;;;;;5208606;28;20691;-62
2022/03/21 01:57:53;;;;;;;3.03;2.17;;;16.90;54.00;;;;;;5228321;28;20704;-62
2022/03/21 02:00:46;;;;;;;2.57;1.97;;;16.90;54.00;;;;;;5226621;28;20572;-62
2022/03/21 02:03:38;;;;;;;3.00;1.97;;;16.90;54.10;;;;;;5228330;28;20679;-62
2022/03/21 02:06:30;;;;;;;2.93;2.10;;;16.90;54.10;;;;;;5228725;28;20668;-60
2022/03/21 02:09:22;;;;;;;2.33;2.07;;;16.90;54.10;;;;;;5228970;28;20235;-62
2022/03/21 02:12:15;;;;;;;1.97;1.77;;;16.90;54.10;;;;;;5227737;28;20213;-60
2022/03/21 02:15:10;;;;;;;3.63;2.33;;;16.90;54.10;;;;;;5228642;28;20208;-62
2022/03/21 02:18:04;;;;;;;3.37;2.17;;;16.90;54.00;;;;;;5227908;28;20254;-60
2022/03/21 02:20:59;;;;;;;2.67;2.00;;;16.90;54.10;;;;;;5216740;28;20192;-61
2022/03/21 02:23:58;;;;;;;2.53;2.33;;;16.90;54.10;;;;;;5215205;28;20247;-62
2022/03/21 02:26:53;;;;;;;2.50;2.27;;;16.90;54.10;;;;;;5207195;28;20190;-62
2022/03/21 02:29:49;;;;;;;2.27;2.00;;;16.90;54.10;;;;;;5207763;28;20593;-62
2022/03/21 02:32:42;;;;;;;2.50;2.27;;;16.90;54.10;;;;;;5222761;28;20300;-62
2022/03/21 02:35:35;;;;;;;3.20;2.00;;;16.90;54.10;;;;;;5228335;28;20193;-61
2022/03/21 02:38:28;;;;;;;2.00;1.80;;;16.90;54.10;;;;;;5228121;28;20203;-62
2022/03/21 02:41:20;;;;;;;2.17;1.90;;;16.90;54.10;;;;;;5227894;28;20201;-63
2022/03/21 02:44:14;;;;;;;2.30;1.90;;;16.90;54.10;;;;;;5228147;28;20595;-63
2022/03/21 02:47:07;;;;;;;2.17;1.80;;;16.90;54.10;;;;;;5227734;28;20203;-62
2022/03/21 02:50:01;;;;;;;1.93;1.73;;;16.90;54.10;;;;;;5211649;28;20221;-61
2022/03/21 02:52:55;;;;;;;2.10;1.80;;;16.90;54.10;;;;;;5227135;28;20217;-62
2022/03/21 02:55:47;;;;;;;2.47;2.00;;;16.90;54.10;;;;;;5218089;28;20200;-63
2022/03/21 02:58:39;;;;;;;2.30;2.10;;;16.90;54.10;;;;;;5207005;28;20600;-62
2022/03/21 03:01:32;;;;;;;2.33;2.07;;;16.90;54.00;;;;;;5208779;28;20209;-62
2022/03/21 03:04:26;;;;;;;2.70;2.20;;;16.90;54.10;;;;;;5206604;28;20190;-63
2022/03/21 03:07:18;;;;;;;2.87;2.43;;;16.90;54.00;;;;;;5207316;28;20204;-62
2022/03/21 03:10:10;;;;;;;2.70;2.40;;;16.90;54.10;;;;;;5207739;28;20214;-62
2022/03/21 03:13:02;;;;;;;2.40;2.10;;;16.90;54.00;;;;;;5206699;28;20692;-63
2022/03/21 03:15:54;;;;;;;2.60;2.27;;;16.90;54.10;;;;;;5218994;28;20735;-62
2022/03/21 03:18:48;;;;;;;2.67;2.37;;;16.90;54.20;;;;;;5223428;28;20682;-62
2022/03/21 03:21:44;;;;;;;1.97;1.77;;;16.90;54.10;;;;;;5217858;28;20224;-63
2022/03/21 03:24:38;;;;;;;2.70;2.50;;;16.90;54.10;;;;;;5208745;28;20185;-63
2022/03/21 03:27:30;;;;;;;2.80;2.30;;;16.90;54.20;;;;;;5205110;28;20227;-62
2022/03/21 03:30:23;;;;;;;2.47;2.20;;;16.90;54.10;;;;;;5208989;28;20572;-63
2022/03/21 03:33:15;;;;;;;2.80;2.27;;;16.90;54.10;;;;;;5226247;28;20219;-63
2022/03/21 03:36:09;;;;;;;2.57;2.13;;;16.90;54.20;;;;;;5224054;28;20198;-62
2022/03/21 03:39:01;;;;;;;2.37;2.13;;;16.90;54.10;;;;;;5214767;28;20212;-63
2022/03/21 03:41:53;;;;;;;4.10;2.10;;;16.80;54.10;;;;;;5226652;28;20248;-62
2022/03/21 03:44:45;;;;;;;2.97;2.37;;;16.90;54.20;;;;;;5226838;28;20193;-62
2022/03/21 03:47:37;;;;;;;2.83;2.37;;;16.90;54.00;;;;;;5225988;28;20204;-63
2022/03/21 03:50:29;;;;;;;3.87;2.43;;;16.90;54.10;;;;;;5264637;22;20277;-63
2022/03/21 03:53:23;;;;;;;2.40;2.20;;;16.90;54.10;;;;;;5248171;28;20216;-63
2022/03/21 03:56:15;;;;;;;2.60;2.07;;;16.90;54.10;;;;;;5268288;28;20199;-64
2022/03/21 03:59:08;;;;;;;3.43;2.20;;;16.90;54.10;;;;;;5258916;28;20217;-63
2022/03/21 04:02:00;;;;;;;2.37;2.17;;;16.90;54.00;;;;;;5244573;28;20192;-63
2022/03/21 04:04:52;;;;;;;2.50;2.30;;;16.90;54.10;;;;;;5246743;28;20204;-63
2022/03/21 04:07:44;;;;;;;2.87;2.30;;;16.90;54.00;;;;;;5245941;28;20200;-63
2022/03/21 04:10:37;;;;;;;2.17;1.97;;;16.90;54.00;;;;;;5238460;28;20227;-64
2022/03/21 04:13:29;;;;;;;2.07;1.87;;;16.90;54.00;;;;;;5229843;28;20220;-62
2022/03/21 04:16:21;;;;;;;2.70;2.17;;;16.90;54.00;;;;;;5225144;28;20186;-62
2022/03/21 04:19:14;;;;;;;3.23;2.37;;;16.90;54.10;;;;;;5230087;28;20213;-63
2022/03/21 04:22:06;;;;;;;2.80;2.10;;;16.90;54.10;;;;;;5231805;28;20334;-61
2022/03/21 04:24:58;;;;;;;3.10;2.47;;;16.90;54.10;;;;;;5245777;28;20663;-63
2022/03/21 04:27:52;;;;;;;2.53;2.13;;;16.90;54.00;;;;;;5235901;28;20571;-63
2022/03/21 04:30:44;;;;;;;2.53;2.07;;;16.90;54.00;;;;;;5243702;28;20220;-63
2022/03/21 04:33:36;;;;;;;2.93;2.30;;;16.90;54.00;;;;;;5232699;28;20217;-63
2022/03/21 04:36:29;;;;;;;2.73;2.23;;;16.90;54.10;;;;;;5240770;28;20192;-64
2022/03/21 04:39:21;;;;;;;3.87;2.47;;;16.90;54.00;;;;;;5245667;28;20220;-63
2022/03/21 04:42:13;;;;;;;3.40;2.50;;;16.90;54.10;;;;;;5245541;28;20205;-63
2022/03/21 04:45:08;;;;;;;3.13;2.30;;;16.90;54.00;;;;;;5245477;28;20200;-61
2022/03/21 04:48:00;;;;;;;2.40;2.10;;;16.90;54.10;;;;;;5245059;28;20200;-63
2022/03/21 04:50:52;;;;;;;5.00;2.40;;;16.90;53.90;;;;;;5244331;28;20228;-63
2022/03/21 04:53:44;;;;;;;3.77;2.67;;;16.90;53.80;;;;;;5245448;28;20219;-62
2022/03/21 04:56:36;;;;;;;3.07;2.20;;;17.00;53.90;;;;;;5245520;28;20200;-63
2022/03/21 04:59:29;;;;;;;2.80;2.50;;;16.90;53.80;;;;;;5244870;28;20221;-65
2022/03/21 05:02:22;;;;;;;2.87;2.50;;;16.90;53.80;;;;;;5235726;28;20660;-62
2022/03/21 05:05:15;;;;;;;3.70;2.60;;;16.90;53.80;;;;;;5244796;28;20200;-63
2022/03/21 05:08:07;;;;;;;2.53;2.20;;;16.90;53.80;;;;;;5245164;28;20682;-63
2022/03/21 05:10:59;;;;;;;2.67;2.13;;;16.90;53.90;;;;;;5245018;28;20268;-63
2022/03/21 05:13:51;;;;;;;3.53;2.60;;;16.90;53.90;;;;;;5241671;28;20223;-64
2022/03/21 05:16:43;;;;;;;2.80;2.50;;;16.90;54.00;;;;;;5241838;28;20667;-63
2022/03/21 05:19:37;;;;;;;2.73;2.13;;;16.90;53.80;;;;;;5225153;28;20726;-63
2022/03/21 05:22:29;;;;;;;2.67;2.37;;;16.90;53.90;;;;;;5245467;28;20668;-63
2022/03/21 05:31:41;;;;;;;2.37;2.17;;;16.90;53.90;;;;;;5246753;28;20191;-62
2022/03/21 05:37:44;;;;;;;2.60;2.30;;;16.90;54.00;;;;;;5248771;28;20185;-63
2022/03/21 05:40:41;;;;;;;3.30;2.30;;;17.00;54.00;;;;;;5246879;28;20704;-62
2022/03/21 05:43:34;;;;;;;3.00;2.47;;;16.90;53.90;;;;;;5248783;28;20192;-62
2022/03/21 05:46:26;;;;;;;3.53;2.63;;;16.90;54.10;;;;;;5247884;28;20726;-65
2022/03/21 05:49:18;;;;;;;3.03;2.33;;;16.90;54.00;;;;;;5248344;28;20220;-64
2022/03/21 05:52:11;;;;;;;2.87;2.20;;;17.00;54.00;;;;;;5236120;28;20200;-63
2022/03/21 05:55:07;;;;;;;5.33;2.33;;;16.90;54.00;;;;;;5248333;28;20196;-63
2022/03/21 05:58:00;;;;;;;3.63;2.53;;;17.00;54.00;;;;;;5245910;28;20188;-63
2022/03/21 06:00:52;;;;;;;3.47;2.50;;;17.00;54.10;;;;;;5244968;28;20211;-63
2022/03/21 06:03:44;;;;;;;2.50;2.30;;;17.00;54.10;;;;;;5245375;28;20238;-63
2022/03/21 06:06:36;;;;;;;2.77;2.23;;;17.00;54.10;;;;;;5248105;28;20205;-63
2022/03/21 06:09:28;;;;;;;4.23;2.57;;;17.00;54.00;;;;;;5247387;28;20710;-61
2022/03/21 06:12:22;;;;;;;3.03;2.50;;;17.00;53.90;;;;;;5248922;28;20189;-63
2022/03/21 06:15:14;;;;;;;3.00;2.27;;;17.00;53.90;;;;;;5246128;28;20255;-65
2022/03/21 06:18:10;;;;;;;2.40;2.20;;;17.00;54.00;;;;;;5264691;28;20623;-63
2022/03/21 06:21:03;;;;;;;2.60;2.40;;;17.00;54.00;;;;;;5247319;28;20519;-61
2022/03/21 06:23:55;;;;;;;3.00;2.20;;;17.00;54.00;;;;;;5248852;28;20188;-63
2022/03/21 06:26:47;;;;;;;2.37;2.13;;;17.00;54.00;;;;;;5246712;28;20197;-63
2022/03/21 06:29:42;;;;;;;3.77;2.80;;;17.00;54.00;;;;;;5236671;28;20306;-62
2022/03/21 06:32:34;;;;;;;3.30;2.70;;;17.00;54.00;;;;;;5247304;28;20196;-62
2022/03/21 06:35:26;;;;;;;4.33;3.03;;;17.00;54.00;;;;;;5247298;28;20572;-62
2022/03/21 06:38:19;;;;;;;2.93;2.57;;;17.00;54.00;;;;;;5247181;28;20189;-61
2022/03/21 06:41:11;;;;;;;2.60;2.40;;;17.00;54.00;;;;;;5245455;28;20575;-63
2022/03/21 06:44:03;;;;;;;3.47;2.73;;;17.00;53.90;;;;;;5244368;28;20694;-63
2022/03/21 06:46:58;;;;;;;2.73;2.50;;;17.00;54.00;;;;;;5246134;28;20685;-63
2022/03/21 06:49:50;;;;;;;3.20;2.57;;;17.00;54.10;;;;;;5244933;28;20228;-62
2022/03/21 06:52:44;;;;;;;2.63;2.43;;;17.00;53.90;;;;;;5247022;28;20262;-63
2022/03/21 06:55:36;;;;;;;2.93;2.43;;;17.00;54.00;;;;;;5244656;28;20204;-63
2022/03/21 06:58:29;;;;;;;2.83;2.20;;;17.00;53.90;;;;;;5244665;28;20697;-62
2022/03/21 07:01:21;;;;;;;2.40;2.03;;;17.00;53.90;;;;;;5239968;28;20208;-63
2022/03/21 07:04:15;;;;;;;3.10;2.53;;;17.00;54.10;;;;;;5230440;28;20618;-63
2022/03/21 07:07:07;;;;;;;4.10;2.87;;;17.00;54.00;;;;;;5226823;28;20189;-60
2022/03/21 07:09:59;;;;;;;2.87;2.37;;;17.00;54.00;;;;;;5247469;28;20212;-63
2022/03/21 07:12:51;;;;;;;3.13;2.43;;;17.00;54.10;;;;;;5245761;28;20188;-63
2022/03/21 07:15:44;;;;;;;3.53;2.70;;;17.00;54.10;;;;;;5245742;28;20686;-64
2022/03/21 07:18:36;;;;;;;3.83;3.23;;;17.00;54.20;;;;;;5245085;28;20188;-63
2022/03/21 07:21:29;;;;;;;2.67;2.47;;;17.00;54.20;;;;;;5246502;28;20475;-64
2022/03/21 07:24:21;;;;;;;3.57;2.43;;;17.00;54.30;;;;;;5239918;28;20202;-64
2022/03/21 07:27:13;;;;;;;2.90;2.57;;;17.00;54.30;;;;;;5226203;28;20189;-63
2022/03/21 07:30:07;;;;;;;2.80;2.30;;;16.90;54.20;;;;;;5242190;28;20307;-63
2022/03/21 07:32:59;;;;;;;3.40;2.40;;;17.00;54.40;;;;;;5244501;28;20203;-65
2022/03/21 07:35:51;;;;;;;4.87;2.80;;;17.00;54.40;;;;;;5246188;28;20235;-64
2022/03/21 07:38:45;;;;;;;2.73;2.40;;;17.00;54.50;;;;;;5246270;28;20199;-64
2022/03/21 07:41:37;;;;;;;3.27;2.40;;;17.00;54.50;;;;;;5246264;28;20205;-63
2022/03/21 07:47:40;;;;;;;3.70;2.70;;;17.00;54.50;;;;;;5245734;28;20219;-63
2022/03/21 07:50:32;;;;;;;4.17;3.00;;;17.00;54.50;;;;;;5236124;28;20420;-68
2022/03/21 07:53:25;;;;;;;3.37;2.67;;;17.00;54.70;;;;;;5234342;28;20208;-63
2022/03/21 07:56:19;;;;;;;3.03;2.63;;;17.00;54.70;;;;;;5247374;28;20192;-63
2022/03/21 07:59:11;;;;;;;2.60;2.40;;;17.00;54.60;;;;;;5245501;28;20239;-60
2022/03/21 08:02:05;;;;;;;3.17;2.40;;;17.00;54.50;;;;;;5232904;28;20204;-64
2022/03/21 08:04:59;;;;;;;4.73;2.97;;;17.00;54.60;;;;;;5238503;28;20678;-63
2022/03/21 08:07:51;;;;;;;3.53;2.70;;;17.00;54.60;;;;;;5246327;28;20199;-63
2022/03/21 08:10:44;;;;;;;3.00;2.37;;;17.00;54.70;;;;;;5245710;28;20216;-63
2022/03/21 08:13:38;;;;;;;3.37;2.57;;;17.00;54.70;;;;;;5245557;28;20208;-64
2022/03/21 08:16:30;;;;;;;4.20;2.90;;;17.00;54.70;;;;;;5246000;28;20280;-63
2022/03/21 08:19:24;;;;;;;2.83;2.50;;;17.00;54.70;;;;;;5245044;28;20216;-63
2022/03/21 08:22:16;;;;;;;4.17;2.90;;;17.00;54.70;;;;;;5245746;28;20679;-64
2022/03/21 08:25:09;;;;;;;2.93;2.63;;;17.00;54.80;;;;;;5242314;28;20204;-63
2022/03/21 08:28:01;;;;;;;2.80;2.10;;;17.00;54.80;;;;;;5237834;28;20203;-63
2022/03/21 08:30:55;;;;;;;2.50;2.23;;;17.00;54.80;;;;;;5244927;28;20220;-65
2022/03/21 08:33:47;;;;;;;3.83;2.27;;;17.10;54.90;;;;;;5242717;28;20695;-66
2022/03/21 08:36:39;;;;;;;3.30;2.57;;;17.10;55.10;;;;;;5243475;28;20207;-66
2022/03/21 08:39:31;;;;;;;3.30;2.60;;;17.10;55.10;;;;;;5245092;28;20336;-68
2022/03/21 08:42:23;;;;;;;3.13;2.63;;;17.00;55.10;;;;;;5244995;28;20542;-66
2022/03/21 08:45:15;;;;;;;3.67;2.60;;;17.10;55.10;;;;;;5245923;28;20193;-66
2022/03/21 08:48:09;;;;;;;2.87;2.17;;;17.10;55.10;;;;;;5245375;28;20193;-66
2022/03/21 08:51:01;;;;;;;2.40;2.20;;;17.10;55.20;;;;;;5231519;28;20224;-65
2022/03/21 08:53:53;;;;;;;2.73;2.47;;;17.10;55.20;;;;;;5241489;28;20261;-65
2022/03/21 08:56:47;;;;;;;2.23;2.03;;;17.10;55.10;;;;;;5249835;28;20204;-65
2022/03/21 08:59:39;;;;;;;2.17;1.97;;;17.10;55.20;;;;;;5249371;28;20214;-66
2022/03/21 09:02:31;;;;;;;3.73;2.63;;;17.20;55.80;;;;;;5237108;28;20200;-65
2022/03/21 09:05:24;;;;;;;3.00;2.37;;;17.20;55.20;;;;;;5229300;28;20190;-65
2022/03/21 09:08:17;;;;;;;3.27;2.33;;;17.10;55.80;;;;;;5245212;28;20195;-67
2022/03/21 09:11:09;;;;;;;2.33;2.13;;;17.20;55.20;;;;;;5249079;28;20204;-63
2022/03/21 09:14:01;;;;;;;3.00;2.50;;;17.20;55.20;;;;;;5248867;28;20767;-66
2022/03/21 09:16:56;;;;;;;2.87;2.47;;;17.20;55.20;;;;;;5249495;28;20579;-66
2022/03/21 09:19:48;;;;;;;2.60;2.37;;;17.20;55.30;;;;;;5248383;28;20227;-67
2022/03/21 09:22:42;;;;;;;3.73;2.20;;;17.20;55.30;;;;;;5248505;28;20192;-66
2022/03/21 09:25:34;;;;;;;2.77;2.43;;;17.20;55.30;;;;;;5249042;28;20199;-66
2022/03/21 09:28:26;;;;;;;2.60;2.40;;;17.20;55.30;;;;;;5248182;28;20723;-67
2022/03/21 09:31:18;;;;;;;2.87;2.40;;;17.20;55.30;;;;;;5239750;28;20203;-66
2022/03/21 09:34:12;;;;;;;3.77;2.50;;;17.20;55.30;;;;;;5239530;28;20224;-66
2022/03/21 09:37:04;;;;;;;2.70;2.17;;;17.20;55.40;;;;;;5247969;28;20204;-65
2022/03/21 09:39:57;;;;;;;3.07;2.50;;;17.20;55.40;;;;;;5249235;28;20220;-65
2022/03/21 09:42:50;;;;;;;3.00;2.50;;;17.20;55.30;;;;;;5248241;28;20203;-66
2022/03/21 09:45:43;;;;;;;2.30;2.10;;;17.20;55.40;;;;;;5248734;28;20224;-63
2022/03/21 09:48:35;;;;;;;2.70;2.23;;;17.20;56.00;;;;;;5248743;28;20200;-62
2022/03/21 09:51:29;;;;;;;2.80;2.50;;;17.20;55.20;;;;;;5240929;28;20200;-63
2022/03/21 09:54:21;;;;;;;2.53;2.33;;;17.20;55.10;;;;;;5247258;28;20212;-63
2022/03/21 09:57:14;;;;;;;2.80;2.50;;;17.20;55.30;;;;;;5248357;28;20197;-61
2022/03/21 10:00:08;;;;;;;2.90;2.33;;;17.20;55.10;;;;;;5229163;28;20296;-63
2022/03/21 10:03:00;;;;;;;2.60;2.40;;;17.10;55.20;;;;;;5237938;28;20231;-64
2022/03/21 10:05:52;;;;;;;2.93;2.33;;;17.10;55.20;;;;;;5239691;28;20198;-64
2022/03/21 10:08:44;;;;;;;2.30;2.10;;;17.10;55.30;;;;;;5248035;28;20672;-65
2022/03/21 10:11:38;;;;;;;2.87;2.40;;;17.10;55.30;;;;;;5248186;28;20556;-66
2022/03/21 10:14:33;;;;;;;3.80;2.53;;;17.10;55.40;;;;;;5247752;28;20304;-63
2022/03/21 10:17:25;;;;;;;4.80;2.63;;;17.10;55.70;;;;;;5247927;28;20223;-65
2022/03/21 10:20:33;;;;;;;2.90;2.47;;;17.10;55.40;;;;;;5227375;28;20213;-63
2022/03/21 10:23:27;;;;;;;3.43;2.60;;;17.10;55.50;;;;;;5239895;28;20192;-63
2022/03/21 10:26:27;;;;;;;2.40;2.20;;;17.10;55.50;;;;;;5231678;28;20891;-64
2022/03/21 10:29:20;;;;;;;2.77;2.27;;;17.10;56.10;;;;;;5247590;28;20414;-65
2022/03/21 10:32:15;;;;;;;3.10;2.60;;;17.10;55.50;;;;;;5247525;28;20715;-63
2022/03/21 10:35:11;;;;;;;2.87;2.30;;;17.10;55.60;;;;;;5248313;28;20209;-63
2022/03/21 10:38:05;;;;;;;2.53;2.00;;;17.10;55.60;;;;;;5247649;28;20679;-63
2022/03/21 10:40:57;;;;;;;2.40;2.00;;;17.10;55.70;;;;;;5247730;28;20282;-63
2022/03/21 10:43:54;;;;;;;2.60;2.07;;;17.10;55.70;;;;;;5247475;28;20200;-63
2022/03/21 10:46:52;;;;;;;2.70;2.20;;;17.20;55.70;;;;;;5247411;28;20672;-64
2022/03/21 10:49:45;;;;;;;2.37;2.17;;;17.10;55.60;;;;;;5243794;28;20244;-63
2022/03/21 10:52:38;;;;;;;2.47;2.27;;;17.10;55.70;;;;;;5237357;28;20677;-63
2022/03/21 10:55:30;;;;;;;2.30;2.10;;;17.10;55.70;;;;;;5246538;28;20216;-63
2022/03/21 10:58:33;;;;;;;3.73;2.50;;;17.10;55.80;;;;;;5246948;28;20204;-63
2022/03/21 11:01:27;;;;;;;2.53;2.00;;;17.10;55.80;;;;;;5241030;28;20200;-63
2022/03/21 11:04:19;;;;;;;2.93;2.60;;;17.10;55.80;;;;;;5229764;28;20568;-63
2022/03/21 11:07:13;;;;;;;2.67;2.37;;;17.10;55.80;;;;;;5232403;28;20204;-61
2022/03/21 11:10:06;;;;;;;2.40;2.20;;;17.10;55.80;;;;;;5246370;28;20599;-63
2022/03/21 11:13:02;;;;;;;2.93;2.57;;;17.10;55.80;;;;;;5247423;28;20188;-63
2022/03/21 11:15:54;;;;;;;3.20;2.23;;;17.10;55.80;;;;;;5246975;28;20595;-63
2022/03/21 11:18:47;;;;;;;2.60;2.30;;;17.10;56.40;;;;;;5245518;28;20226;-63
2022/03/21 11:21:39;;;;;;;2.70;2.17;;;17.10;55.90;;;;;;5245925;28;20199;-63
2022/03/21 11:24:34;;;;;;;2.50;2.20;;;17.10;55.90;;;;;;5246439;28;20189;-64
2022/03/21 11:27:40;;;;;;;2.50;2.20;;;17.10;55.90;;;;;;5246891;28;20196;-64
2022/03/21 11:30:44;;;;;;;2.57;2.37;;;17.10;55.90;;;;;;5247008;28;20235;-63
2022/03/21 11:33:41;;;;;;;2.40;2.20;;;17.10;55.90;;;;;;5247242;28;20571;-67
2022/03/21 11:36:34;;;;;;;2.20;2.00;;;17.10;55.90;;;;;;5237692;28;20213;-63
2022/03/21 11:39:27;;;;;;;3.03;2.20;;;17.10;56.20;;;;;;5226239;28;20217;-65
2022/03/21 11:42:25;;;;;;;2.63;2.37;;;17.10;56.10;;;;;;5237054;28;20195;-64
2022/03/21 11:45:25;;;;;;;2.67;2.20;;;17.10;56.00;;;;;;5246605;28;20195;-67
2022/03/21 11:48:36;;;;;;;2.10;1.90;;;17.10;56.20;;;;;;5229732;28;20275;-67
2022/03/21 11:51:39;;;;;;;2.30;2.10;;;17.20;56.20;;;;;;5229966;28;20200;-67
2022/03/21 11:54:33;;;;;;;2.40;2.20;;;17.20;56.20;;;;;;5240018;28;20192;-67
2022/03/21 11:57:28;;;;;;;2.07;1.87;;;17.20;56.20;;;;;;5246257;28;20277;-67
2022/03/21 12:00:25;;;;;;;2.10;1.90;;;17.20;56.20;;;;;;5246769;28;20265;-67
2022/03/21 12:03:26;;;;;;;2.07;1.87;;;17.20;56.20;;;;;;5243319;28;20188;-66
2022/03/21 12:06:25;;;;;;;2.50;2.30;;;17.30;56.20;;;;;;5226310;28;20184;-66
2022/03/21 12:09:17;;;;;;;2.30;2.00;;;17.30;56.10;;;;;;5244995;28;20216;-66
2022/03/21 12:12:10;;;;;;;2.37;2.13;;;17.30;56.20;;;;;;5245780;28;20196;-66
2022/03/21 12:15:14;;;;;;;3.17;2.33;;;17.30;56.10;;;;;;5245047;28;20208;-67
2022/03/21 12:18:06;;;;;;;2.63;2.10;;;17.30;56.10;;;;;;5245532;28;20188;-67
2022/03/21 12:21:11;;;;;;;2.87;2.50;;;17.30;56.10;;;;;;5245246;28;20216;-64
2022/03/21 12:24:17;;;;;;;2.20;1.97;;;17.30;56.10;;;;;;5245343;28;20201;-63
2022/03/21 12:27:33;;;;;;;2.20;2.00;;;17.30;56.00;;;;;;5245980;28;20196;-63
2022/03/21 12:30:50;;;;;;;3.13;2.60;;;17.30;55.90;;;;;;5244008;28;20734;-64
2022/03/21 12:33:42;;;;;;;3.57;2.63;;;17.30;55.90;;;;;;5245312;28;20192;-64
2022/03/21 12:36:35;;;;;;;3.77;2.13;;;17.30;55.90;;;;;;5240334;28;20221;-64
2022/03/21 12:39:27;;;;;;;2.47;2.27;;;17.30;55.90;;;;;;5233311;28;20209;-63
2022/03/21 12:42:19;;;;;;;3.87;2.50;;;17.20;55.90;;;;;;5229662;28;20216;-63
2022/03/21 12:45:18;;;;;;;2.97;2.67;;;17.20;56.00;;;;;;5239358;28;20200;-62
2022/03/21 12:48:13;;;;;;;3.20;2.70;;;17.20;56.00;;;;;;5246060;28;20197;-63
2022/03/21 12:51:06;;;;;;;2.80;2.50;;;17.20;56.00;;;;;;5242907;28;20583;-62
2022/03/21 12:54:01;;;;;;;2.63;2.40;;;17.20;56.10;;;;;;5246121;28;20676;-63
2022/03/21 12:57:05;;;;;;;3.17;2.60;;;17.20;56.10;;;;;;5246037;28;20614;-63
2022/03/21 13:00:15;;;;;;;2.70;2.50;;;17.20;56.10;;;;;;5244896;28;20219;-63
2022/03/21 13:03:09;;;;;;;2.77;2.57;;;17.20;56.10;;;;;;5242260;28;20675;-66
2022/03/21 13:12:24;;;;;;;3.13;2.30;;;17.20;56.30;;;;;;5245766;28;20181;-67
2022/03/21 13:15:17;;;;;;;3.33;2.80;;;17.20;56.30;;;;;;5246074;28;20215;-65
2022/03/21 13:18:09;;;;;;;3.80;2.30;;;17.30;56.40;;;;;;5244999;28;20667;-65
2022/03/21 13:21:06;;;;;;;2.67;2.47;;;17.30;56.30;;;;;;5242502;28;20599;-65
2022/03/21 13:23:58;;;;;;;3.57;2.80;;;17.30;56.30;;;;;;5243550;28;20274;-63
2022/03/21 13:26:58;;;;;;;2.80;2.43;;;17.30;56.20;;;;;;5244713;28;20272;-61
2022/03/21 13:29:52;;;;;;;2.57;2.37;;;17.30;56.00;;;;;;5233905;28;20220;-61
2022/03/21 13:32:45;;;;;;;3.23;2.63;;;17.30;56.00;;;;;;5237116;28;20567;-61
2022/03/21 13:35:52;;;;;;;3.00;2.70;;;17.30;55.90;;;;;;5245183;28;20212;-62
2022/03/21 13:38:46;;;;;;;4.10;3.13;;;17.30;56.40;;;;;;5244961;28;20687;-61
2022/03/21 13:41:53;;;;;;;3.17;2.77;;;17.30;55.80;;;;;;5237501;28;20656;-61
2022/03/21 13:44:52;;;;;;;3.43;3.13;;;17.20;55.70;;;;;;5229645;28;20211;-61
2022/03/21 13:47:48;;;;;;;4.57;3.13;;;17.20;55.60;;;;;;5228196;28;20185;-62
2022/03/21 13:50:40;;;;;;;4.33;3.37;;;17.20;55.60;;;;;;5231312;28;20221;-63
2022/03/21 13:53:32;;;;;;;3.30;3.00;;;17.20;55.50;;;;;;5227979;28;20229;-62
2022/03/21 13:56:31;;;;;;;6.37;3.00;;;17.20;55.40;;;;;;5245391;28;20228;-61
2022/03/21 13:59:23;;;;;;;3.53;3.20;;;17.20;55.50;;;;;;5248257;28;20247;-61
2022/03/21 14:02:18;;;;;;;3.67;2.80;;;17.20;55.40;;;;;;5247251;28;20196;-60
2022/03/21 14:05:21;;;;;;;5.33;3.53;;;17.20;55.50;;;;;;5249038;28;20192;-61
2022/03/21 14:08:16;;;;;;;4.20;3.57;;;17.20;55.40;;;;;;5249155;28;20599;-57
2022/03/21 14:11:12;;;;;;;4.07;3.17;;;17.20;55.40;;;;;;5249335;28;20197;-62
2022/03/21 14:14:10;;;;;;;3.60;3.30;;;17.20;55.40;;;;;;5248813;28;20195;-61
2022/03/21 14:17:04;;;;;;;3.73;3.13;;;17.20;55.50;;;;;;5247365;28;20711;-61
2022/03/21 14:19:56;;;;;;;4.67;3.33;;;17.20;55.50;;;;;;5245995;28;20581;-61
2022/03/21 14:22:48;;;;;;;4.47;3.07;;;17.20;55.50;;;;;;5243580;28;20188;-62
2022/03/21 14:28:50;;;;;;;3.33;3.03;;;17.20;55.50;;;;;;5248639;28;20432;-62
2022/03/21 14:31:44;;;;;;;4.40;3.40;;;17.20;56.10;;;;;;5247917;28;20206;-62
2022/03/21 14:34:36;;;;;;;4.10;3.17;;;17.20;55.80;;;;;;5247583;28;20219;-63
2022/03/21 14:37:28;;;;;;;4.07;3.20;;;17.20;55.80;;;;;;5248573;28;20192;-63
2022/03/21 14:40:21;;;;;;;4.07;3.50;;;17.20;55.80;;;;;;5247616;28;20366;-62
2022/03/21 14:43:13;;;;;;;4.07;3.10;;;17.20;55.80;;;;;;5248613;28;20200;-62
2022/03/21 14:46:05;;;;;;;3.97;3.40;;;17.20;55.80;;;;;;5247631;28;20193;-62
2022/03/21 14:48:59;;;;;;;4.07;3.33;;;17.20;55.90;;;;;;5247535;28;20224;-62
2022/03/21 14:51:51;;;;;;;3.73;3.10;;;17.20;56.10;;;;;;5230811;28;20189;-62
2022/03/21 14:54:43;;;;;;;3.33;3.03;;;17.20;56.10;;;;;;5247791;28;20192;-62
2022/03/21 14:57:35;;;;;;;3.50;3.10;;;17.20;56.10;;;;;;5247416;28;20651;-61
2022/03/21 15:00:27;;;;;;;3.80;3.27;;;17.20;56.20;;;;;;5244510;28;20223;-62
2022/03/21 15:03:19;;;;;;;5.77;3.07;;;17.20;56.20;;;;;;5233123;28;20727;-62
2022/03/21 15:06:13;;;;;;;3.67;3.20;;;17.20;56.20;;;;;;5247338;28;20189;-61
2022/03/21 15:09:05;;;;;;;3.73;3.23;;;17.20;56.30;;;;;;5246882;28;20591;-63
2022/03/21 15:11:58;;;;;;;3.40;3.10;;;17.20;56.30;;;;;;5246280;28;20193;-62
2022/03/21 15:14:51;;;;;;;4.57;3.27;;;17.20;56.30;;;;;;5247161;28;20201;-61
2022/03/21 15:17:43;;;;;;;4.93;3.40;;;17.20;56.30;;;;;;5246994;28;20668;-62
2022/03/21 15:20:36;;;;;;;3.37;2.97;;;17.20;56.40;;;;;;5246820;28;20221;-64
2022/03/21 15:23:32;;;;;;;3.83;3.43;;;17.20;56.40;;;;;;5246635;28;20198;-61
2022/03/21 15:26:24;;;;;;;5.03;3.27;;;17.20;56.40;;;;;;5254261;28;20191;-61
2022/03/21 15:29:16;;;;;;;4.13;3.13;;;17.20;56.50;;;;;;5267258;28;20219;-61
2022/03/21 15:32:09;;;;;;;3.20;2.90;;;17.20;56.50;;;;;;5258407;28;20243;-61